sensor_id;sensor_type;location;lat;lon;timestamp;P1;durP1;ratioP1;P2;durP2;ratioP2
29416;SDS011;28421;51.030;4.006;2023-04-06T03:20:34;34.08;;;13.35;;
29416;SDS011;28421;51.030;4.006;2023-04-06T03:23:00;26.40;;;13.20;;
29416;SDS011;28421;51.030;4.006;2023-04-06T03:25:29;25.13;;;12.52;;
29416;SDS011;28421;51.030;4.006;2023-04-06T03:28:01;23.70;;;13.63;;
29416;SDS011;28421;51.030;4.006;2023-04-06T03:30:28;28.75;;;14.65;;
29416;SDS011;28421;51.030;4.006;2023-04-06T03:32:54;25.35;;;12.63;;
29416;SDS011;28421;51.030;4.006;2023-04-06T03:35:22;30.60;;;13.35;;
29416;SDS011;28421;51.030;4.006;2023-04-06T03:37:48;27.10;;;13.38;;
29416;SDS011;28421;51.030;4.006;2023-04-06T03:40:13;32.00;;;14.70;;
29416;SDS011;28421;51.030;4.006;2023-04-06T03:42:39;31.45;;;13.25;;
29416;SDS011;28421;51.030;4.006;2023-04-06T03:45:11;34.33;;;15.45;;
29416;SDS011;28421;51.030;4.006;2023-04-06T03:47:43;30.08;;;12.95;;
29416;SDS011;28421;51.030;4.006;2023-04-06T03:50:09;26.05;;;12.85;;
29416;SDS011;28421;51.030;4.006;2023-04-06T03:52:35;27.15;;;12.95;;
29416;SDS011;28421;51.030;4.006;2023-04-06T03:55:01;28.83;;;14.63;;
29416;SDS011;28421;51.030;4.006;2023-04-06T03:57:27;30.90;;;15.98;;
29416;SDS011;28421;51.030;4.006;2023-04-06T03:59:52;35.45;;;14.68;;
29416;SDS011;28421;51.030;4.006;2023-04-06T04:02:18;29.13;;;14.75;;
29416;SDS011;28421;51.030;4.006;2023-04-06T04:04:43;29.75;;;14.30;;
29416;SDS011;28421;51.030;4.006;2023-04-06T04:07:09;27.33;;;14.70;;
29416;SDS011;28421;51.030;4.006;2023-04-06T04:09:34;25.80;;;14.88;;
29416;SDS011;28421;51.030;4.006;2023-04-06T04:12:00;26.88;;;14.32;;
29416;SDS011;28421;51.030;4.006;2023-04-06T04:14:25;27.67;;;13.80;;
29416;SDS011;28421;51.030;4.006;2023-04-06T04:16:51;26.92;;;14.88;;
29416;SDS011;28421;51.030;4.006;2023-04-06T04:19:17;35.17;;;15.40;;
29416;SDS011;28421;51.030;4.006;2023-04-06T04:21:43;30.45;;;15.70;;
29416;SDS011;28421;51.030;4.006;2023-04-06T04:24:11;29.15;;;15.85;;
29416;SDS011;28421;51.030;4.006;2023-04-06T04:26:38;32.42;;;16.55;;
29416;SDS011;28421;51.030;4.006;2023-04-06T04:29:05;30.98;;;15.38;;
29416;SDS011;28421;51.030;4.006;2023-04-06T04:31:31;34.75;;;16.30;;
29416;SDS011;28421;51.030;4.006;2023-04-06T04:34:00;49.95;;;21.30;;
29416;SDS011;28421;51.030;4.006;2023-04-06T04:36:30;48.67;;;21.25;;
29416;SDS011;28421;51.030;4.006;2023-04-06T04:38:58;45.58;;;22.48;;
29416;SDS011;28421;51.030;4.006;2023-04-06T04:41:27;35.35;;;18.83;;
29416;SDS011;28421;51.030;4.006;2023-04-06T04:43:53;36.08;;;16.00;;
29416;SDS011;28421;51.030;4.006;2023-04-06T04:46:21;32.88;;;15.68;;
29416;SDS011;28421;51.030;4.006;2023-04-06T04:48:47;26.85;;;15.70;;
29416;SDS011;28421;51.030;4.006;2023-04-06T04:51:13;29.85;;;16.70;;
29416;SDS011;28421;51.030;4.006;2023-04-06T04:53:49;28.70;;;15.93;;
29416;SDS011;28421;51.030;4.006;2023-04-06T04:56:20;30.10;;;15.75;;
29416;SDS011;28421;51.030;4.006;2023-04-06T04:58:49;30.05;;;15.43;;
29416;SDS011;28421;51.030;4.006;2023-04-06T05:01:15;30.23;;;16.73;;
29416;SDS011;28421;51.030;4.006;2023-04-06T05:03:41;28.13;;;15.38;;
29416;SDS011;28421;51.030;4.006;2023-04-06T05:06:11;33.35;;;16.92;;
29416;SDS011;28421;51.030;4.006;2023-04-06T05:08:38;40.05;;;18.95;;
29416;SDS011;28421;51.030;4.006;2023-04-06T05:11:05;42.97;;;18.67;;
29416;SDS011;28421;51.030;4.006;2023-04-06T05:13:35;42.40;;;21.08;;
29416;SDS011;28421;51.030;4.006;2023-04-06T05:16:06;41.15;;;18.88;;
29416;SDS011;28421;51.030;4.006;2023-04-06T05:18:33;38.90;;;16.70;;
29416;SDS011;28421;51.030;4.006;2023-04-06T05:21:00;29.98;;;15.48;;
29416;SDS011;28421;51.030;4.006;2023-04-06T05:23:48;31.35;;;16.48;;
29416;SDS011;28421;51.030;4.006;2023-04-06T05:26:14;36.13;;;16.58;;
29416;SDS011;28421;51.030;4.006;2023-04-06T05:28:40;33.28;;;16.38;;
29416;SDS011;28421;51.030;4.006;2023-04-06T05:31:07;31.80;;;15.75;;
29416;SDS011;28421;51.030;4.006;2023-04-06T05:33:43;31.55;;;16.73;;
29416;SDS011;28421;51.030;4.006;2023-04-06T05:36:11;28.15;;;15.13;;
29416;SDS011;28421;51.030;4.006;2023-04-06T05:38:40;31.50;;;16.20;;
29416;SDS011;28421;51.030;4.006;2023-04-06T05:41:26;30.45;;;15.23;;
29416;SDS011;28421;51.030;4.006;2023-04-06T05:43:51;30.73;;;15.63;;
29416;SDS011;28421;51.030;4.006;2023-04-06T05:46:17;35.47;;;16.48;;
29416;SDS011;28421;51.030;4.006;2023-04-06T05:48:43;36.58;;;17.73;;
29416;SDS011;28421;51.030;4.006;2023-04-06T05:51:11;30.98;;;15.50;;
29416;SDS011;28421;51.030;4.006;2023-04-06T05:53:43;24.85;;;14.32;;
29416;SDS011;28421;51.030;4.006;2023-04-06T05:56:09;32.78;;;16.17;;
29416;SDS011;28421;51.030;4.006;2023-04-06T05:58:34;30.60;;;16.40;;
29416;SDS011;28421;51.030;4.006;2023-04-06T06:01:00;27.60;;;14.90;;
29416;SDS011;28421;51.030;4.006;2023-04-06T06:06:01;36.03;;;14.63;;
29416;SDS011;28421;51.030;4.006;2023-04-06T06:08:34;27.13;;;15.43;;
29416;SDS011;28421;51.030;4.006;2023-04-06T06:11:03;28.27;;;15.13;;
29416;SDS011;28421;51.030;4.006;2023-04-06T06:13:29;32.08;;;14.77;;
29416;SDS011;28421;51.030;4.006;2023-04-06T06:15:55;30.00;;;15.65;;
29416;SDS011;28421;51.030;4.006;2023-04-06T06:18:22;27.75;;;15.80;;
29416;SDS011;28421;51.030;4.006;2023-04-06T06:20:50;30.55;;;15.82;;
29416;SDS011;28421;51.030;4.006;2023-04-06T06:23:15;36.10;;;16.45;;
29416;SDS011;28421;51.030;4.006;2023-04-06T06:25:41;27.92;;;15.00;;
29416;SDS011;28421;51.030;4.006;2023-04-06T06:28:08;25.92;;;14.25;;
29416;SDS011;28421;51.030;4.006;2023-04-06T06:30:34;32.58;;;15.00;;
29416;SDS011;28421;51.030;4.006;2023-04-06T06:33:00;29.70;;;15.30;;
29416;SDS011;28421;51.030;4.006;2023-04-06T06:35:27;25.80;;;14.25;;
29416;SDS011;28421;51.030;4.006;2023-04-06T06:37:53;28.85;;;13.80;;
29416;SDS011;28421;51.030;4.006;2023-04-06T06:40:22;26.67;;;12.70;;
29416;SDS011;28421;51.030;4.006;2023-04-06T06:42:49;21.38;;;11.77;;
29416;SDS011;28421;51.030;4.006;2023-04-06T06:45:25;23.50;;;12.75;;
29416;SDS011;28421;51.030;4.006;2023-04-06T06:47:51;25.23;;;13.63;;
29416;SDS011;28421;51.030;4.006;2023-04-06T06:50:16;26.50;;;14.00;;
29416;SDS011;28421;51.030;4.006;2023-04-06T06:52:43;25.42;;;13.48;;
29416;SDS011;28421;51.030;4.006;2023-04-06T06:55:09;25.40;;;13.35;;
29416;SDS011;28421;51.030;4.006;2023-04-06T06:57:36;23.40;;;11.98;;
29416;SDS011;28421;51.030;4.006;2023-04-06T07:00:02;22.33;;;12.68;;
29416;SDS011;28421;51.030;4.006;2023-04-06T07:02:30;29.90;;;13.40;;
29416;SDS011;28421;51.030;4.006;2023-04-06T07:04:56;25.13;;;13.57;;
29416;SDS011;28421;51.030;4.006;2023-04-06T07:07:22;20.35;;;12.00;;
29416;SDS011;28421;51.030;4.006;2023-04-06T07:09:47;22.73;;;10.52;;
29416;SDS011;28421;51.030;4.006;2023-04-06T07:12:13;23.70;;;11.05;;
29416;SDS011;28421;51.030;4.006;2023-04-06T07:14:38;19.20;;;11.15;;
29416;SDS011;28421;51.030;4.006;2023-04-06T07:17:04;20.13;;;11.98;;
29416;SDS011;28421;51.030;4.006;2023-04-06T07:19:30;25.58;;;12.18;;
29416;SDS011;28421;51.030;4.006;2023-04-06T07:21:56;23.02;;;14.23;;
29416;SDS011;28421;51.030;4.006;2023-04-06T07:24:21;27.17;;;12.93;;
29416;SDS011;28421;51.030;4.006;2023-04-06T07:26:47;17.85;;;11.43;;
29416;SDS011;28421;51.030;4.006;2023-04-06T07:29:13;29.38;;;12.20;;
29416;SDS011;28421;51.030;4.006;2023-04-06T07:31:38;20.63;;;11.52;;
29416;SDS011;28421;51.030;4.006;2023-04-06T07:34:04;21.70;;;10.25;;
29416;SDS011;28421;51.030;4.006;2023-04-06T07:36:30;23.23;;;11.48;;
29416;SDS011;28421;51.030;4.006;2023-04-06T07:38:55;20.70;;;10.40;;
29416;SDS011;28421;51.030;4.006;2023-04-06T07:41:24;14.65;;;8.75;;
29416;SDS011;28421;51.030;4.006;2023-04-06T07:43:50;19.90;;;9.38;;
29416;SDS011;28421;51.030;4.006;2023-04-06T07:46:16;19.48;;;8.43;;
29416;SDS011;28421;51.030;4.006;2023-04-06T07:48:41;16.58;;;9.10;;
29416;SDS011;28421;51.030;4.006;2023-04-06T07:51:07;17.38;;;8.93;;
29416;SDS011;28421;51.030;4.006;2023-04-06T07:53:38;15.82;;;8.55;;
29416;SDS011;28421;51.030;4.006;2023-04-06T07:56:03;17.92;;;9.30;;
29416;SDS011;28421;51.030;4.006;2023-04-06T07:58:29;16.98;;;9.30;;
29416;SDS011;28421;51.030;4.006;2023-04-06T08:00:54;22.40;;;9.77;;
29416;SDS011;28421;51.030;4.006;2023-04-06T08:03:20;21.48;;;9.20;;
29416;SDS011;28421;51.030;4.006;2023-04-06T08:05:50;18.30;;;9.32;;
29416;SDS011;28421;51.030;4.006;2023-04-06T08:08:16;16.83;;;9.20;;
29416;SDS011;28421;51.030;4.006;2023-04-06T08:10:42;16.23;;;8.65;;
29416;SDS011;28421;51.030;4.006;2023-04-06T08:13:07;12.13;;;7.72;;
29416;SDS011;28421;51.030;4.006;2023-04-06T08:15:33;13.02;;;7.45;;
29416;SDS011;28421;51.030;4.006;2023-04-06T08:17:58;15.40;;;8.15;;
29416;SDS011;28421;51.030;4.006;2023-04-06T08:20:25;15.07;;;8.30;;
29416;SDS011;28421;51.030;4.006;2023-04-06T08:22:50;17.30;;;8.82;;
29416;SDS011;28421;51.030;4.006;2023-04-06T08:25:16;15.75;;;8.48;;
29416;SDS011;28421;51.030;4.006;2023-04-06T08:27:41;15.57;;;6.47;;
29416;SDS011;28421;51.030;4.006;2023-04-06T08:30:07;12.43;;;7.40;;
29416;SDS011;28421;51.030;4.006;2023-04-06T08:32:32;11.77;;;7.05;;
29416;SDS011;28421;51.030;4.006;2023-04-06T08:34:58;11.70;;;7.38;;
29416;SDS011;28421;51.030;4.006;2023-04-06T08:37:25;10.10;;;5.88;;
29416;SDS011;28421;51.030;4.006;2023-04-06T08:39:50;14.07;;;6.35;;
29416;SDS011;28421;51.030;4.006;2023-04-06T08:42:18;12.23;;;7.90;;
29416;SDS011;28421;51.030;4.006;2023-04-06T08:44:45;12.55;;;7.28;;
29416;SDS011;28421;51.030;4.006;2023-04-06T08:47:12;13.65;;;6.95;;
29416;SDS011;28421;51.030;4.006;2023-04-06T08:49:39;11.98;;;6.90;;
29416;SDS011;28421;51.030;4.006;2023-04-06T08:52:07;14.63;;;7.35;;
29416;SDS011;28421;51.030;4.006;2023-04-06T08:54:33;13.90;;;5.97;;
29416;SDS011;28421;51.030;4.006;2023-04-06T08:56:59;11.98;;;6.85;;
29416;SDS011;28421;51.030;4.006;2023-04-06T08:59:27;12.63;;;7.18;;
29416;SDS011;28421;51.030;4.006;2023-04-06T09:01:54;12.90;;;6.40;;
29416;SDS011;28421;51.030;4.006;2023-04-06T09:04:21;12.82;;;7.50;;
29416;SDS011;28421;51.030;4.006;2023-04-06T09:06:51;10.82;;;6.93;;
29416;SDS011;28421;51.030;4.006;2023-04-06T09:09:18;10.73;;;6.95;;
29416;SDS011;28421;51.030;4.006;2023-04-06T09:11:47;20.38;;;7.15;;
29416;SDS011;28421;51.030;4.006;2023-04-06T09:14:15;13.23;;;6.63;;
29416;SDS011;28421;51.030;4.006;2023-04-06T09:16:58;14.50;;;7.88;;
29416;SDS011;28421;51.030;4.006;2023-04-06T09:19:24;14.73;;;8.00;;
29416;SDS011;28421;51.030;4.006;2023-04-06T09:22:00;10.73;;;7.30;;
29416;SDS011;28421;51.030;4.006;2023-04-06T09:24:39;9.90;;;5.50;;
29416;SDS011;28421;51.030;4.006;2023-04-06T09:27:13;13.88;;;7.35;;
29416;SDS011;28421;51.030;4.006;2023-04-06T09:29:40;19.58;;;7.22;;
29416;SDS011;28421;51.030;4.006;2023-04-06T09:32:07;12.82;;;7.75;;
29416;SDS011;28421;51.030;4.006;2023-04-06T09:34:39;13.75;;;8.13;;
29416;SDS011;28421;51.030;4.006;2023-04-06T09:39:49;16.60;;;7.70;;
29416;SDS011;28421;51.030;4.006;2023-04-06T09:42:25;13.45;;;6.82;;
29416;SDS011;28421;51.030;4.006;2023-04-06T09:44:54;13.13;;;7.60;;
29416;SDS011;28421;51.030;4.006;2023-04-06T09:47:20;16.35;;;8.25;;
29416;SDS011;28421;51.030;4.006;2023-04-06T09:49:54;13.90;;;7.80;;
29416;SDS011;28421;51.030;4.006;2023-04-06T09:52:27;14.02;;;7.55;;
29416;SDS011;28421;51.030;4.006;2023-04-06T09:55:04;15.18;;;7.53;;
29416;SDS011;28421;51.030;4.006;2023-04-06T10:00:13;15.00;;;7.75;;
29416;SDS011;28421;51.030;4.006;2023-04-06T10:05:19;15.20;;;7.03;;
29416;SDS011;28421;51.030;4.006;2023-04-06T10:07:53;17.95;;;9.20;;
29416;SDS011;28421;51.030;4.006;2023-04-06T10:10:21;11.57;;;7.78;;
29416;SDS011;28421;51.030;4.006;2023-04-06T10:12:47;13.70;;;7.95;;
29416;SDS011;28421;51.030;4.006;2023-04-06T10:15:13;13.80;;;7.63;;
29416;SDS011;28421;51.030;4.006;2023-04-06T10:17:39;16.05;;;7.75;;
29416;SDS011;28421;51.030;4.006;2023-04-06T10:22:53;15.50;;;9.20;;
29416;SDS011;28421;51.030;4.006;2023-04-06T10:25:30;16.23;;;8.13;;
29416;SDS011;28421;51.030;4.006;2023-04-06T10:28:01;22.23;;;9.30;;
29416;SDS011;28421;51.030;4.006;2023-04-06T10:30:33;16.05;;;9.05;;
29416;SDS011;28421;51.030;4.006;2023-04-06T10:33:00;19.88;;;9.90;;
29416;SDS011;28421;51.030;4.006;2023-04-06T10:35:36;15.52;;;9.23;;
29416;SDS011;28421;51.030;4.006;2023-04-06T10:38:03;17.13;;;9.98;;
29416;SDS011;28421;51.030;4.006;2023-04-06T10:40:30;14.50;;;7.75;;
29416;SDS011;28421;51.030;4.006;2023-04-06T10:43:12;17.05;;;8.00;;
29416;SDS011;28421;51.030;4.006;2023-04-06T10:45:39;14.70;;;8.15;;
29416;SDS011;28421;51.030;4.006;2023-04-06T10:48:35;16.02;;;8.48;;
29416;SDS011;28421;51.030;4.006;2023-04-06T10:51:16;15.70;;;7.75;;
29416;SDS011;28421;51.030;4.006;2023-04-06T10:53:46;16.70;;;8.50;;
29416;SDS011;28421;51.030;4.006;2023-04-06T10:56:17;16.58;;;8.88;;
29416;SDS011;28421;51.030;4.006;2023-04-06T10:58:47;13.95;;;8.73;;
29416;SDS011;28421;51.030;4.006;2023-04-06T11:01:14;14.98;;;9.02;;
29416;SDS011;28421;51.030;4.006;2023-04-06T11:03:45;16.30;;;8.27;;
29416;SDS011;28421;51.030;4.006;2023-04-06T11:06:17;14.93;;;8.70;;
29416;SDS011;28421;51.030;4.006;2023-04-06T11:08:47;14.57;;;8.43;;
29416;SDS011;28421;51.030;4.006;2023-04-06T11:11:14;18.85;;;10.65;;
29416;SDS011;28421;51.030;4.006;2023-04-06T11:13:42;18.05;;;9.02;;
29416;SDS011;28421;51.030;4.006;2023-04-06T11:18:51;16.17;;;10.05;;
29416;SDS011;28421;51.030;4.006;2023-04-06T11:21:17;17.92;;;9.35;;
29416;SDS011;28421;51.030;4.006;2023-04-06T11:23:43;14.45;;;9.50;;
29416;SDS011;28421;51.030;4.006;2023-04-06T11:26:12;16.35;;;8.90;;
29416;SDS011;28421;51.030;4.006;2023-04-06T11:28:42;14.73;;;8.43;;
29416;SDS011;28421;51.030;4.006;2023-04-06T11:31:11;14.80;;;8.90;;
29416;SDS011;28421;51.030;4.006;2023-04-06T11:33:37;14.00;;;8.65;;
29416;SDS011;28421;51.030;4.006;2023-04-06T11:36:04;13.85;;;8.75;;
29416;SDS011;28421;51.030;4.006;2023-04-06T11:38:30;17.38;;;9.20;;
29416;SDS011;28421;51.030;4.006;2023-04-06T11:40:56;15.55;;;8.70;;
29416;SDS011;28421;51.030;4.006;2023-04-06T11:43:28;13.73;;;8.38;;
29416;SDS011;28421;51.030;4.006;2023-04-06T11:46:02;14.43;;;7.82;;
29416;SDS011;28421;51.030;4.006;2023-04-06T11:48:29;11.23;;;7.88;;
29416;SDS011;28421;51.030;4.006;2023-04-06T11:50:59;12.35;;;7.82;;
29416;SDS011;28421;51.030;4.006;2023-04-06T11:53:27;14.82;;;8.48;;
29416;SDS011;28421;51.030;4.006;2023-04-06T11:55:53;13.27;;;6.90;;
29416;SDS011;28421;51.030;4.006;2023-04-06T11:58:19;10.50;;;6.97;;
29416;SDS011;28421;51.030;4.006;2023-04-06T12:00:45;13.90;;;7.55;;
29416;SDS011;28421;51.030;4.006;2023-04-06T12:03:13;8.88;;;5.68;;
29416;SDS011;28421;51.030;4.006;2023-04-06T12:05:39;9.35;;;5.78;;
29416;SDS011;28421;51.030;4.006;2023-04-06T12:08:05;9.68;;;6.40;;
29416;SDS011;28421;51.030;4.006;2023-04-06T12:10:31;9.80;;;5.97;;
29416;SDS011;28421;51.030;4.006;2023-04-06T12:12:56;11.63;;;7.65;;
29416;SDS011;28421;51.030;4.006;2023-04-06T12:15:22;10.20;;;7.07;;
29416;SDS011;28421;51.030;4.006;2023-04-06T12:17:47;6.35;;;5.30;;
29416;SDS011;28421;51.030;4.006;2023-04-06T12:20:14;10.88;;;7.00;;
29416;SDS011;28421;51.030;4.006;2023-04-06T12:22:40;11.27;;;6.13;;
29416;SDS011;28421;51.030;4.006;2023-04-06T12:25:06;12.35;;;6.47;;
29416;SDS011;28421;51.030;4.006;2023-04-06T12:27:32;8.60;;;5.88;;
29416;SDS011;28421;51.030;4.006;2023-04-06T12:29:58;9.85;;;6.10;;
29416;SDS011;28421;51.030;4.006;2023-04-06T12:32:23;8.18;;;5.40;;
29416;SDS011;28421;51.030;4.006;2023-04-06T12:34:51;10.18;;;6.20;;
29416;SDS011;28421;51.030;4.006;2023-04-06T12:37:17;10.63;;;5.45;;
29416;SDS011;28421;51.030;4.006;2023-04-06T12:39:43;9.00;;;5.47;;
29416;SDS011;28421;51.030;4.006;2023-04-06T12:42:10;8.13;;;5.55;;
29416;SDS011;28421;51.030;4.006;2023-04-06T12:44:36;10.48;;;6.43;;
29416;SDS011;28421;51.030;4.006;2023-04-06T12:47:01;9.20;;;6.22;;
29416;SDS011;28421;51.030;4.006;2023-04-06T12:49:27;8.73;;;5.97;;
29416;SDS011;28421;51.030;4.006;2023-04-06T12:51:53;11.98;;;6.65;;
29416;SDS011;28421;51.030;4.006;2023-04-06T12:54:18;7.90;;;5.45;;
29416;SDS011;28421;51.030;4.006;2023-04-06T12:56:45;12.30;;;7.88;;
29416;SDS011;28421;51.030;4.006;2023-04-06T12:59:10;12.05;;;7.75;;
29416;SDS011;28421;51.030;4.006;2023-04-06T13:01:36;10.88;;;6.57;;
29416;SDS011;28421;51.030;4.006;2023-04-06T13:04:02;11.45;;;6.93;;
29416;SDS011;28421;51.030;4.006;2023-04-06T13:06:27;14.27;;;8.13;;
29416;SDS011;28421;51.030;4.006;2023-04-06T13:08:53;10.68;;;7.57;;
29416;SDS011;28421;51.030;4.006;2023-04-06T13:11:20;12.98;;;7.43;;
29416;SDS011;28421;51.030;4.006;2023-04-06T13:13:48;11.23;;;7.85;;
29416;SDS011;28421;51.030;4.006;2023-04-06T13:16:13;12.10;;;7.13;;
29416;SDS011;28421;51.030;4.006;2023-04-06T13:18:40;13.63;;;8.40;;
29416;SDS011;28421;51.030;4.006;2023-04-06T13:21:06;12.18;;;7.95;;
29416;SDS011;28421;51.030;4.006;2023-04-06T13:23:32;18.63;;;9.93;;
29416;SDS011;28421;51.030;4.006;2023-04-06T13:26:03;14.15;;;8.70;;
29416;SDS011;28421;51.030;4.006;2023-04-06T13:28:30;12.75;;;7.82;;
29416;SDS011;28421;51.030;4.006;2023-04-06T13:30:58;14.70;;;8.15;;
29416;SDS011;28421;51.030;4.006;2023-04-06T13:33:25;16.63;;;8.38;;
29416;SDS011;28421;51.030;4.006;2023-04-06T13:35:51;11.60;;;8.15;;
29416;SDS011;28421;51.030;4.006;2023-04-06T13:38:16;20.10;;;9.05;;
29416;SDS011;28421;51.030;4.006;2023-04-06T13:40:42;16.58;;;8.50;;
29416;SDS011;28421;51.030;4.006;2023-04-06T13:43:08;15.35;;;9.35;;
29416;SDS011;28421;51.030;4.006;2023-04-06T13:45:33;13.23;;;8.27;;
29416;SDS011;28421;51.030;4.006;2023-04-06T13:47:59;16.13;;;8.90;;
29416;SDS011;28421;51.030;4.006;2023-04-06T13:50:28;12.90;;;8.35;;
29416;SDS011;28421;51.030;4.006;2023-04-06T13:52:54;13.23;;;8.40;;
29416;SDS011;28421;51.030;4.006;2023-04-06T13:55:20;13.15;;;8.45;;
29416;SDS011;28421;51.030;4.006;2023-04-06T13:57:46;14.25;;;8.18;;
29416;SDS011;28421;51.030;4.006;2023-04-06T14:00:12;13.20;;;8.48;;
29416;SDS011;28421;51.030;4.006;2023-04-06T14:02:39;13.15;;;8.70;;
29416;SDS011;28421;51.030;4.006;2023-04-06T14:05:05;16.42;;;8.55;;
29416;SDS011;28421;51.030;4.006;2023-04-06T14:07:31;16.88;;;8.90;;
29416;SDS011;28421;51.030;4.006;2023-04-06T14:09:56;19.05;;;10.20;;
29416;SDS011;28421;51.030;4.006;2023-04-06T14:12:22;12.80;;;8.80;;
29416;SDS011;28421;51.030;4.006;2023-04-06T14:14:47;17.75;;;9.98;;
29416;SDS011;28421;51.030;4.006;2023-04-06T14:17:13;13.85;;;8.63;;
29416;SDS011;28421;51.030;4.006;2023-04-06T14:19:38;16.33;;;9.50;;
29416;SDS011;28421;51.030;4.006;2023-04-06T14:22:04;16.10;;;9.43;;
29416;SDS011;28421;51.030;4.006;2023-04-06T14:24:29;12.38;;;8.82;;
29416;SDS011;28421;51.030;4.006;2023-04-06T14:26:55;16.48;;;9.52;;
29416;SDS011;28421;51.030;4.006;2023-04-06T14:29:21;14.32;;;8.70;;
29416;SDS011;28421;51.030;4.006;2023-04-06T14:31:47;13.48;;;7.88;;
29416;SDS011;28421;51.030;4.006;2023-04-06T14:34:13;17.20;;;9.43;;
29416;SDS011;28421;51.030;4.006;2023-04-06T14:36:39;16.20;;;9.43;;
29416;SDS011;28421;51.030;4.006;2023-04-06T14:39:05;19.73;;;9.52;;
29416;SDS011;28421;51.030;4.006;2023-04-06T14:41:32;19.33;;;10.80;;
29416;SDS011;28421;51.030;4.006;2023-04-06T14:43:58;18.85;;;10.35;;
29416;SDS011;28421;51.030;4.006;2023-04-06T14:46:23;17.73;;;9.43;;
29416;SDS011;28421;51.030;4.006;2023-04-06T14:48:49;15.00;;;9.75;;
29416;SDS011;28421;51.030;4.006;2023-04-06T14:51:15;24.52;;;11.82;;
29416;SDS011;28421;51.030;4.006;2023-04-06T14:53:41;18.27;;;11.10;;
29416;SDS011;28421;51.030;4.006;2023-04-06T14:56:07;16.95;;;10.50;;
29416;SDS011;28421;51.030;4.006;2023-04-06T14:58:32;25.13;;;11.05;;
29416;SDS011;28421;51.030;4.006;2023-04-06T15:00:59;16.90;;;11.45;;
29416;SDS011;28421;51.030;4.006;2023-04-06T15:03:25;20.70;;;12.45;;
29416;SDS011;28421;51.030;4.006;2023-04-06T15:05:52;17.40;;;12.38;;
29416;SDS011;28421;51.030;4.006;2023-04-06T15:08:17;18.95;;;10.55;;
29416;SDS011;28421;51.030;4.006;2023-04-06T15:10:46;21.00;;;13.10;;
29416;SDS011;28421;51.030;4.006;2023-04-06T15:13:11;21.60;;;12.52;;
29416;SDS011;28421;51.030;4.006;2023-04-06T15:15:37;19.52;;;11.57;;
29416;SDS011;28421;51.030;4.006;2023-04-06T15:18:03;23.10;;;11.70;;
29416;SDS011;28421;51.030;4.006;2023-04-06T15:20:29;21.95;;;10.77;;
29416;SDS011;28421;51.030;4.006;2023-04-06T15:22:55;20.48;;;11.70;;
29416;SDS011;28421;51.030;4.006;2023-04-06T15:25:21;21.05;;;11.82;;
29416;SDS011;28421;51.030;4.006;2023-04-06T15:27:46;22.67;;;11.77;;
29416;SDS011;28421;51.030;4.006;2023-04-06T15:30:12;19.50;;;10.55;;
29416;SDS011;28421;51.030;4.006;2023-04-06T15:32:37;16.40;;;10.55;;
29416;SDS011;28421;51.030;4.006;2023-04-06T15:35:10;20.52;;;10.20;;
29416;SDS011;28421;51.030;4.006;2023-04-06T15:37:37;20.00;;;10.45;;
29416;SDS011;28421;51.030;4.006;2023-04-06T15:40:03;17.73;;;10.48;;
29416;SDS011;28421;51.030;4.006;2023-04-06T15:42:29;21.35;;;11.18;;
29416;SDS011;28421;51.030;4.006;2023-04-06T15:44:54;15.68;;;8.82;;
29416;SDS011;28421;51.030;4.006;2023-04-06T15:47:20;19.75;;;9.45;;
29416;SDS011;28421;51.030;4.006;2023-04-06T15:49:46;17.40;;;9.23;;
29416;SDS011;28421;51.030;4.006;2023-04-06T15:52:11;17.52;;;10.00;;
29416;SDS011;28421;51.030;4.006;2023-04-06T15:54:37;19.42;;;10.02;;
29416;SDS011;28421;51.030;4.006;2023-04-06T15:57:08;16.98;;;8.85;;
29416;SDS011;28421;51.030;4.006;2023-04-06T15:59:33;20.85;;;10.07;;
29416;SDS011;28421;51.030;4.006;2023-04-06T16:01:59;18.67;;;9.75;;
29416;SDS011;28421;51.030;4.006;2023-04-06T16:04:25;13.43;;;8.57;;
29416;SDS011;28421;51.030;4.006;2023-04-06T16:06:50;19.92;;;10.23;;
29416;SDS011;28421;51.030;4.006;2023-04-06T16:09:15;20.08;;;10.32;;
29416;SDS011;28421;51.030;4.006;2023-04-06T16:11:41;29.05;;;10.93;;
29416;SDS011;28421;51.030;4.006;2023-04-06T16:14:06;16.92;;;9.35;;
29416;SDS011;28421;51.030;4.006;2023-04-06T16:16:32;20.48;;;11.30;;
29416;SDS011;28421;51.030;4.006;2023-04-06T16:18:58;13.75;;;8.68;;
29416;SDS011;28421;51.030;4.006;2023-04-06T16:21:23;13.45;;;8.82;;
29416;SDS011;28421;51.030;4.006;2023-04-06T16:23:50;17.92;;;8.80;;
29416;SDS011;28421;51.030;4.006;2023-04-06T16:26:16;17.23;;;8.95;;
29416;SDS011;28421;51.030;4.006;2023-04-06T16:28:42;16.98;;;7.78;;
29416;SDS011;28421;51.030;4.006;2023-04-06T16:31:18;22.17;;;8.00;;
29416;SDS011;28421;51.030;4.006;2023-04-06T16:33:46;15.00;;;7.07;;
29416;SDS011;28421;51.030;4.006;2023-04-06T16:36:12;20.25;;;7.57;;
29416;SDS011;28421;51.030;4.006;2023-04-06T16:38:38;17.95;;;7.10;;
29416;SDS011;28421;51.030;4.006;2023-04-06T16:41:03;20.63;;;6.03;;
29416;SDS011;28421;51.030;4.006;2023-04-06T16:43:29;19.65;;;5.60;;
29416;SDS011;28421;51.030;4.006;2023-04-06T16:45:54;16.80;;;5.40;;
29416;SDS011;28421;51.030;4.006;2023-04-06T16:48:20;15.20;;;4.90;;
29416;SDS011;28421;51.030;4.006;2023-04-06T16:50:46;14.35;;;4.53;;
29416;SDS011;28421;51.030;4.006;2023-04-06T16:53:11;11.05;;;4.22;;
29416;SDS011;28421;51.030;4.006;2023-04-06T16:55:37;12.27;;;5.30;;
29416;SDS011;28421;51.030;4.006;2023-04-06T16:58:05;13.32;;;4.70;;
29416;SDS011;28421;51.030;4.006;2023-04-06T17:00:31;9.38;;;4.32;;
29416;SDS011;28421;51.030;4.006;2023-04-06T17:02:56;12.35;;;4.05;;
29416;SDS011;28421;51.030;4.006;2023-04-06T17:05:22;13.40;;;4.55;;
29416;SDS011;28421;51.030;4.006;2023-04-06T17:07:51;12.07;;;4.70;;
29416;SDS011;28421;51.030;4.006;2023-04-06T17:10:16;11.70;;;4.30;;
29416;SDS011;28421;51.030;4.006;2023-04-06T17:12:43;11.18;;;5.07;;
29416;SDS011;28421;51.030;4.006;2023-04-06T17:15:10;16.67;;;4.50;;
29416;SDS011;28421;51.030;4.006;2023-04-06T17:17:39;11.18;;;3.88;;
29416;SDS011;28421;51.030;4.006;2023-04-06T17:20:05;17.63;;;5.07;;
29416;SDS011;28421;51.030;4.006;2023-04-06T17:22:31;7.78;;;4.88;;
29416;SDS011;28421;51.030;4.006;2023-04-06T17:24:58;18.60;;;6.15;;
29416;SDS011;28421;51.030;4.006;2023-04-06T17:27:23;13.40;;;4.75;;
29416;SDS011;28421;51.030;4.006;2023-04-06T17:29:50;14.13;;;4.63;;
29416;SDS011;28421;51.030;4.006;2023-04-06T17:32:17;10.43;;;4.28;;
29416;SDS011;28421;51.030;4.006;2023-04-06T17:34:43;19.58;;;4.35;;
29416;SDS011;28421;51.030;4.006;2023-04-06T17:37:09;10.90;;;4.00;;
29416;SDS011;28421;51.030;4.006;2023-04-06T17:39:34;8.50;;;3.53;;
29416;SDS011;28421;51.030;4.006;2023-04-06T17:42:01;9.55;;;2.85;;
29416;SDS011;28421;51.030;4.006;2023-04-06T17:44:28;9.25;;;3.47;;
29416;SDS011;28421;51.030;4.006;2023-04-06T17:46:54;5.18;;;2.72;;
29416;SDS011;28421;51.030;4.006;2023-04-06T17:49:20;4.50;;;2.60;;
29416;SDS011;28421;51.030;4.006;2023-04-06T17:51:45;8.13;;;2.92;;
29416;SDS011;28421;51.030;4.006;2023-04-06T17:54:11;11.05;;;3.15;;
29416;SDS011;28421;51.030;4.006;2023-04-06T17:56:36;3.38;;;2.53;;
29416;SDS011;28421;51.030;4.006;2023-04-06T17:59:02;10.57;;;3.08;;
29416;SDS011;28421;51.030;4.006;2023-04-06T18:01:31;5.78;;;2.88;;
29416;SDS011;28421;51.030;4.006;2023-04-06T18:03:58;4.07;;;3.15;;
29416;SDS011;28421;51.030;4.006;2023-04-06T18:06:23;5.60;;;3.30;;